This is the latest recevied weather packets stored in our database for station/object E22ZMG-3. If no packets are shown the sender has not sent any weather packets the latest 10 day(s).
| Time | Temp. | Humidity | Pressure | Rain* | Wind** | Luminosity | Snow |
|---|---|---|---|---|---|---|---|
| 1777658161 | 33.89° C | 39% | 975 hPa | - | - | 0 W/m² | - |
| 1777657536 | 33.89° C | 39% | 975 hPa | - | - | 0 W/m² | - |
| 1777656911 | 33.33° C | 40% | 975 hPa | - | - | 0 W/m² | - |
| 1777656287 | 33.33° C | 39% | 975 hPa | - | - | 0 W/m² | - |
| 1777655663 | 33.89° C | 39% | 975 hPa | - | - | 0 W/m² | - |
| 1777655038 | 33.89° C | 39% | 975 hPa | - | - | 0 W/m² | - |
| 1777654414 | 33.89° C | 38% | 975 hPa | - | - | 0 W/m² | - |
| 1777653789 | 33.89° C | 38% | 975 hPa | - | - | 0 W/m² | - |
| 1777653164 | 33.33° C | 39% | 975 hPa | - | - | 0 W/m² | - |
| 1777652539 | 34.44° C | 37% | 975 hPa | - | - | 0 W/m² | - |
| 1777651915 | 33.89° C | 38% | 975 hPa | - | - | 0 W/m² | - |
| 1777651290 | 33.89° C | 38% | 975 hPa | - | - | 0 W/m² | - |
| 1777650665 | 33.89° C | 37% | 975 hPa | - | - | 0 W/m² | - |
| 1777650040 | 33.89° C | 37% | 975 hPa | - | - | 0 W/m² | - |
| 1777649416 | 33.89° C | 38% | 975 hPa | - | - | 0 W/m² | - |
| 1777648792 | 34.44° C | 38% | 975 hPa | - | - | 0 W/m² | - |
| 1777648167 | 34.44° C | 38% | 975 hPa | - | - | 0 W/m² | - |
| 1777647543 | 33.89° C | 40% | 975 hPa | - | - | 0 W/m² | - |
| 1777646918 | 33.89° C | 40% | 975 hPa | - | - | 0 W/m² | - |
| 1777646293 | 34.44° C | 42% | 975 hPa | - | - | 0 W/m² | - |
| 1777645664 | 35° C | 42% | 974 hPa | - | - | 0 W/m² | - |
| 1777645040 | 35.56° C | 39% | 974 hPa | - | - | 0 W/m² | - |
| 1777644416 | 35.56° C | 41% | 974 hPa | - | - | 0 W/m² | - |
| 1777643790 | 35.56° C | 40% | 974 hPa | - | - | 0 W/m² | - |
| 1777643166 | 36.11° C | 39% | 974 hPa | - | - | 0 W/m² | - |
* Rain since midnight (hover to see other rain measurements)
** Current wind speed in m/s (hover to see current wind gust speed)